Time;durP1;ratioP1;P1;durP2;ratioP2;P2;SDS_P1;SDS_P2;PMS_P1;PMS_P2;Temp;Humidity;BMP_temperature;BMP_pressure;BME280_temperature;BME280_humidity;BME280_pressure;Samples;Min_cycle;Max_cycle;Signal;HPM_P1;HPM_P2
2022/07/01 00:02:04;;;;;;;;;;;24.70;82.10;;;;;;5019639;28;19934;-96
2022/07/01 00:04:36;;;;;;;;;;;24.70;81.80;;;;;;5036728;28;19949;-96
2022/07/01 00:07:12;;;;;;;;;;;24.70;81.70;;;;;;5020151;28;19929;-96
2022/07/01 00:09:40;;;;;;;;;;;24.70;81.80;;;;;;5019789;28;19946;-96
2022/07/01 00:12:10;;;;;;;;;;;24.60;81.80;;;;;;5019858;28;19958;-96
2022/07/01 00:14:39;;;;;;;;;;;24.60;82.00;;;;;;5022209;28;19955;-96
2022/07/01 00:25:07;;;;;;;;;;;24.50;81.90;;;;;;5443717;23;19968;-96
2022/07/01 00:27:39;;;;;;;;;;;24.60;81.80;;;;;;4984775;28;19993;-96
2022/07/01 00:30:07;;;;;;;;;;;24.60;81.60;;;;;;4983034;28;19933;-96
2022/07/01 00:32:35;;;;;;;;;;;24.60;81.70;;;;;;4984839;28;20004;-96
2022/07/01 00:35:04;;;;;;;;;;;24.50;81.80;;;;;;4969027;28;19960;-96
2022/07/01 00:37:52;;;;;;;;;;;24.50;81.90;;;;;;4987468;28;19979;-96
2022/07/01 00:40:20;;;;;;;;;;;24.40;82.30;;;;;;4984164;28;20007;-96
2022/07/01 00:42:53;;;;;;;;;;;24.40;82.50;;;;;;5001945;28;19939;-96
2022/07/01 00:45:21;;;;;;;;;;;24.30;82.90;;;;;;4983240;28;19939;-96
2022/07/01 00:47:51;;;;;;;;;;;24.30;83.10;;;;;;4984353;28;19964;-96
2022/07/01 00:50:17;;;;;;;;;;;24.20;83.40;;;;;;4982925;28;20020;-96
2022/07/01 00:52:44;;;;;;;;;;;24.20;83.60;;;;;;4982079;28;19984;-96
2022/07/01 00:55:12;;;;;;;;;;;24.20;83.90;;;;;;4980959;28;19948;-96
2022/07/01 00:57:41;;;;;;;;;;;24.20;84.10;;;;;;4980899;28;20002;-96
2022/07/01 01:00:16;;;;;;;;;;;24.20;83.90;;;;;;4981318;28;19931;-96
2022/07/01 01:02:48;;;;;;;;;;;24.20;83.80;;;;;;4998019;28;19954;-96
2022/07/01 01:05:32;;;;;;;;;;;24.20;83.90;;;;;;5001653;28;19949;-96
2022/07/01 01:08:01;;;;;;;;;;;24.30;83.80;;;;;;4984594;28;19986;-96
2022/07/01 01:10:36;;;;;;;;;;;24.30;83.70;;;;;;4984868;28;19951;-96
2022/07/01 01:13:08;;;;;;;;;;;24.30;83.70;;;;;;4982100;28;19955;-96
2022/07/01 01:15:37;;;;;;;;;;;24.30;83.70;;;;;;4984748;28;20117;-96
2022/07/01 01:18:09;;;;;;;;;;;24.30;83.40;;;;;;4984240;28;19966;-96
2022/07/01 01:20:43;;;;;;;;;;;24.20;83.40;;;;;;4980114;28;19950;-96
2022/07/01 01:23:31;;;;;;;;;;;24.20;83.60;;;;;;4973953;28;19938;-96
2022/07/01 01:25:59;;;;;;;;;;;24.20;83.80;;;;;;4983053;28;19976;-96
2022/07/01 01:28:27;;;;;;;;;;;24.00;83.80;;;;;;4994868;28;20003;-96
2022/07/01 01:30:57;;;;;;;;;;;23.90;84.10;;;;;;5000423;28;19929;-96
2022/07/01 01:33:25;;;;;;;;;;;23.90;84.70;;;;;;4999441;28;19934;-96
2022/07/01 01:36:03;;;;;;;;;;;23.80;84.90;;;;;;4999838;28;19953;-96
2022/07/01 01:38:32;;;;;;;;;;;23.80;85.10;;;;;;5000092;28;19925;-96
2022/07/01 01:41:01;;;;;;;;;;;23.80;85.10;;;;;;5000062;28;19947;-96
2022/07/01 01:43:28;;;;;;;;;;;23.80;85.00;;;;;;4999730;28;19946;-96
2022/07/01 01:46:01;;;;;;;;;;;23.80;84.70;;;;;;5000465;28;19951;-96
2022/07/01 01:48:29;;;;;;;;;;;23.80;84.80;;;;;;4998569;28;19993;-96
2022/07/01 01:51:04;;;;;;;;;;;23.80;85.10;;;;;;4992971;28;19953;-96
2022/07/01 01:53:36;;;;;;;;;;;23.80;85.30;;;;;;4999870;28;19945;-96
2022/07/01 01:56:06;;;;;;;;;;;23.90;85.30;;;;;;4998643;28;19990;-96
2022/07/01 01:58:54;;;;;;;;;;;23.90;85.30;;;;;;4999959;28;19940;-96
2022/07/01 02:01:23;;;;;;;;;;;23.90;85.40;;;;;;4997798;28;19939;-96
2022/07/01 02:03:51;;;;;;;;;;;24.00;85.30;;;;;;4998158;28;20001;-96
2022/07/01 02:06:18;;;;;;;;;;;24.00;84.60;;;;;;4997053;28;19944;-96
2022/07/01 02:08:44;;;;;;;;;;;23.70;84.70;;;;;;4996719;28;19963;-96
2022/07/01 02:11:10;;;;;;;;;;;23.60;85.00;;;;;;4994591;28;20397;-96
2022/07/01 02:13:37;;;;;;;;;;;23.40;85.60;;;;;;4998576;28;19993;-96
2022/07/01 02:16:06;;;;;;;;;;;23.20;86.20;;;;;;4999274;28;19999;-96
2022/07/01 02:18:38;;;;;;;;;;;23.10;86.50;;;;;;4983291;28;19957;-96
2022/07/01 02:21:15;;;;;;;;;;;23.10;87.10;;;;;;5000477;28;19949;-96
2022/07/01 02:23:44;;;;;;;;;;;23.10;87.20;;;;;;4999194;28;20014;-96
2022/07/01 02:26:17;;;;;;;;;;;23.00;87.10;;;;;;4998146;28;20024;-96
2022/07/01 02:28:46;;;;;;;;;;;23.10;87.10;;;;;;4985970;28;19935;-96
2022/07/01 02:31:17;;;;;;;;;;;23.00;87.00;;;;;;5001447;28;19938;-96
2022/07/01 02:33:52;;;;;;;;;;;22.90;87.80;;;;;;4986615;28;19948;-96
2022/07/01 02:36:21;;;;;;;;;;;22.90;88.00;;;;;;5002643;28;19970;-96
2022/07/01 02:38:48;;;;;;;;;;;22.80;88.10;;;;;;5002059;28;19975;-96
2022/07/01 02:42:22;;;;;;;;;;;22.80;88.00;;;;;;5018954;28;19964;-96
2022/07/01 02:44:25;;;;;;;;;;;22.80;87.60;;;;;;5018064;28;19936;-96
2022/07/01 02:46:57;;;;;;;;;;;22.90;87.50;;;;;;5002676;28;19944;-96
2022/07/01 02:49:34;;;;;;;;;;;23.00;87.80;;;;;;5002617;28;19947;-96
2022/07/01 03:17:58;;;;;;;;;;;22.80;87.20;;;;;;5498341;23;19966;-96
2022/07/01 03:20:25;;;;;;;;;;;22.80;87.10;;;;;;4983500;28;19954;-96
2022/07/01 03:22:57;;;;;;;;;;;22.80;87.10;;;;;;5015599;28;19946;-96
2022/07/01 03:25:25;;;;;;;;;;;22.70;87.20;;;;;;5001226;28;19970;-96
2022/07/01 03:27:57;;;;;;;;;;;22.50;87.10;;;;;;4997569;28;19929;-96
2022/07/01 03:38:13;;;;;;;;;;;22.30;86.70;;;;;;6019560;23;19958;-96
2022/07/01 03:40:49;;;;;;;;;;;22.30;86.80;;;;;;5036667;28;19948;-96
2022/07/01 04:01:32;;;;;;;;;;;22.30;88.00;;;;;;5550208;23;20007;-96
2022/07/01 04:03:58;;;;;;;;;;;22.50;89.50;;;;;;5022143;28;19959;-96
2022/07/01 04:06:25;;;;;;;;;;;22.60;89.70;;;;;;5021493;28;20002;-96
2022/07/01 04:08:52;;;;;;;;;;;22.80;89.70;;;;;;5020677;28;19935;-95
2022/07/01 04:11:19;;;;;;;;;;;22.90;89.50;;;;;;5020512;28;20038;-96
2022/07/01 04:13:53;;;;;;;;;;;23.00;89.30;;;;;;5019818;28;19952;-96
2022/07/01 04:16:21;;;;;;;;;;;23.10;88.80;;;;;;5022851;28;19949;-96
2022/07/01 04:18:48;;;;;;;;;;;23.20;88.30;;;;;;5006881;28;19945;-96
2022/07/01 04:24:02;;;;;;;;;;;23.30;87.90;;;;;;5040891;28;19976;-96
2022/07/01 04:26:31;;;;;;;;;;;23.30;87.80;;;;;;5023771;28;19942;-96
2022/07/01 04:29:01;;;;;;;;;;;23.30;87.90;;;;;;5040900;28;19943;-96
2022/07/01 04:31:52;;;;;;;;;;;23.40;88.00;;;;;;5038965;28;19949;-96
2022/07/01 04:34:19;;;;;;;;;;;23.50;88.10;;;;;;5017034;28;20000;-96
2022/07/01 04:37:06;;;;;;;;;;;23.60;88.20;;;;;;5040226;28;19984;-96
2022/07/01 04:39:32;;;;;;;;;;;23.60;88.20;;;;;;5022602;28;19976;-96
2022/07/01 04:42:02;;;;;;;;;;;23.70;88.10;;;;;;5023720;28;19954;-96
2022/07/01 04:44:33;;;;;;;;;;;23.70;88.10;;;;;;5041254;28;19951;-98
2022/07/01 04:47:02;;;;;;;;;;;23.80;88.00;;;;;;5022453;28;19932;-96
2022/07/01 04:49:36;;;;;;;;;;;23.90;88.00;;;;;;5040919;28;19945;-96
2022/07/01 04:52:05;;;;;;;;;;;24.00;87.90;;;;;;5020425;28;19967;-96
2022/07/01 04:54:33;;;;;;;;;;;24.00;87.80;;;;;;5021814;28;19950;-96
2022/07/01 04:56:59;;;;;;;;;;;24.10;87.80;;;;;;5019957;28;19986;-96
2022/07/01 04:59:27;;;;;;;;;;;24.20;87.50;;;;;;5035694;28;19948;-96
2022/07/01 05:01:53;;;;;;;;;;;24.30;87.40;;;;;;5012660;28;19984;-96
2022/07/01 05:04:19;;;;;;;;;;;24.30;87.20;;;;;;5014825;28;19982;-96
2022/07/01 05:06:45;;;;;;;;;;;24.30;86.90;;;;;;5014758;28;20047;-96
2022/07/01 05:09:14;;;;;;;;;;;24.50;86.60;;;;;;5016769;28;19983;-96
2022/07/01 05:11:41;;;;;;;;;;;24.60;86.40;;;;;;5016546;28;19933;-96
2022/07/01 05:14:11;;;;;;;;;;;24.70;86.20;;;;;;5018914;28;19930;-96
2022/07/01 05:16:47;;;;;;;;;;;24.70;86.00;;;;;;5020094;28;19979;-96
2022/07/01 05:22:01;;;;;;;;;;;24.80;85.70;;;;;;5020306;28;19939;-96
2022/07/01 05:24:32;;;;;;;;;;;24.90;85.50;;;;;;5019909;28;19927;-96
2022/07/01 05:27:03;;;;;;;;;;;25.00;85.50;;;;;;5018137;28;19965;-96
2022/07/01 05:29:30;;;;;;;;;;;25.00;85.50;;;;;;5003296;28;19966;-96
2022/07/01 05:32:07;;;;;;;;;;;25.10;85.20;;;;;;5020085;28;19961;-96
2022/07/01 05:34:38;;;;;;;;;;;25.10;85.10;;;;;;5018133;28;19976;-96
2022/07/01 05:37:21;;;;;;;;;;;25.10;85.00;;;;;;5017925;28;19965;-96
2022/07/01 05:39:48;;;;;;;;;;;25.20;85.00;;;;;;5019336;28;19995;-96
2022/07/01 05:42:14;;;;;;;;;;;25.20;84.80;;;;;;5015761;28;19974;-96
2022/07/01 05:44:44;;;;;;;;;;;25.30;84.90;;;;;;5015132;28;19980;-96
2022/07/01 05:47:11;;;;;;;;;;;25.40;84.60;;;;;;5015908;28;19951;-96
2022/07/01 05:49:43;;;;;;;;;;;25.50;84.40;;;;;;5016616;28;19943;-96
2022/07/01 05:52:10;;;;;;;;;;;25.60;84.30;;;;;;5017038;28;19924;-96
2022/07/01 05:54:46;;;;;;;;;;;;;;;;;;;;;
2022/07/01 05:57:17;;;;;;;;;;;25.80;84.00;;;;;;5016991;28;20417;-96
2022/07/01 05:59:49;;;;;;;;;;;25.80;83.90;;;;;;5018533;28;19948;-96
2022/07/01 06:02:29;;;;;;;;;;;25.90;83.90;;;;;;5002897;28;20014;-96
2022/07/01 06:05:02;;;;;;;;;;;25.90;83.80;;;;;;5020510;28;19977;-96
2022/07/01 06:07:46;;;;;;;;;;;26.00;83.80;;;;;;5018708;28;19929;-96
2022/07/01 06:10:18;;;;;;;;;;;26.00;83.90;;;;;;5019658;28;19954;-96
2022/07/01 06:12:51;;;;;;;;;;;26.10;83.90;;;;;;5019086;28;19939;-96
2022/07/01 06:15:37;;;;;;;;;;;26.20;83.90;;;;;;5018866;28;19987;-96
2022/07/01 06:18:09;;;;;;;;;;;26.20;83.90;;;;;;5016077;28;19980;-96
2022/07/01 06:20:56;;;;;;;;;;;26.30;83.80;;;;;;5020764;28;19931;-96
2022/07/01 06:23:25;;;;;;;;;;;26.30;83.70;;;;;;5019359;28;19958;-96
2022/07/01 06:28:49;;;;;;;;;;;26.40;83.70;;;;;;5668550;23;20407;-96
2022/07/01 06:31:22;;;;;;;;;;;26.50;83.60;;;;;;5021165;28;19936;-97
2022/07/01 06:33:51;;;;;;;;;;;26.50;83.50;;;;;;5020918;28;19970;-96
2022/07/01 06:36:23;;;;;;;;;;;26.70;83.20;;;;;;5021541;28;19979;-96
2022/07/01 06:38:57;;;;;;;;;;;26.70;82.30;;;;;;5020740;28;19951;-96
2022/07/01 06:41:29;;;;;;;;;;;26.80;81.80;;;;;;5020507;28;19981;-96
2022/07/01 06:44:14;;;;;;;;;;;26.80;82.20;;;;;;5040866;28;19963;-96
2022/07/01 06:46:45;;;;;;;;;;;27.00;82.00;;;;;;5058501;28;19951;-96
2022/07/01 06:54:28;;;;;;;;;;;27.10;81.30;;;;;;5596655;23;19967;-96
2022/07/01 06:56:56;;;;;;;;;;;27.20;80.90;;;;;;5021643;28;19971;-96
2022/07/01 06:59:24;;;;;;;;;;;27.20;80.70;;;;;;5020032;28;19969;-96
2022/07/01 07:01:54;;;;;;;;;;;27.30;80.60;;;;;;5021127;28;19971;-96
2022/07/01 07:04:29;;;;;;;;;;;27.40;80.20;;;;;;5004368;28;19945;-96
2022/07/01 07:06:58;;;;;;;;;;;27.50;79.90;;;;;;5020937;28;19925;-96
2022/07/01 07:09:30;;;;;;;;;;;27.60;79.40;;;;;;5020480;28;19945;-96
2022/07/01 07:11:58;;;;;;;;;;;27.70;78.00;;;;;;5018705;28;19947;-96
2022/07/01 07:14:29;;;;;;;;;;;27.80;77.40;;;;;;5020022;28;19949;-96
2022/07/01 07:16:55;;;;;;;;;;;27.90;78.00;;;;;;5035427;28;19962;-96
2022/07/01 07:19:25;;;;;;;;;;;27.90;76.30;;;;;;5035816;28;19972;-96
2022/07/01 07:21:51;;;;;;;;;;;27.90;77.20;;;;;;5035575;28;20470;-96
2022/07/01 07:24:18;;;;;;;;;;;28.00;76.20;;;;;;5017676;28;19942;-96
2022/07/01 07:26:49;;;;;;;;;;;28.10;75.70;;;;;;5033387;28;19934;-96
2022/07/01 07:29:16;;;;;;;;;;;28.20;74.70;;;;;;5055749;28;19937;-96
2022/07/01 07:31:42;;;;;;;;;;;28.20;73.00;;;;;;5037426;28;19950;-96
2022/07/01 07:34:14;;;;;;;;;;;28.30;73.00;;;;;;5038444;28;19953;-96
2022/07/01 07:36:45;;;;;;;;;;;28.30;72.20;;;;;;5057006;28;19955;-96
2022/07/01 07:39:21;;;;;;;;;;;28.40;70.70;;;;;;5040637;28;19955;-96
2022/07/01 07:41:58;;;;;;;;;;;28.50;70.80;;;;;;5012536;28;19935;-96
2022/07/01 07:57:26;;;;;;;;;;;28.90;68.90;;;;;;6023702;23;19969;-96
2022/07/01 08:00:00;;;;;;;;;;;29.00;67.50;;;;;;5016267;28;20037;-96
2022/07/01 08:02:28;;;;;;;;;;;29.00;67.20;;;;;;5017241;28;19961;-96
2022/07/01 08:04:54;;;;;;;;;;;29.00;68.50;;;;;;5014059;28;19944;-96
2022/07/01 08:07:21;;;;;;;;;;;28.80;68.60;;;;;;5013065;28;19944;-96
2022/07/01 08:09:49;;;;;;;;;;;28.80;67.20;;;;;;5011710;28;19938;-96
2022/07/01 08:12:18;;;;;;;;;;;28.80;68.20;;;;;;5010723;28;19956;-96
2022/07/01 08:14:47;;;;;;;;;;;28.70;67.90;;;;;;5012616;28;19947;-96
2022/07/01 08:17:13;;;;;;;;;;;28.60;67.40;;;;;;5013277;28;20064;-96
2022/07/01 08:19:39;;;;;;;;;;;28.60;66.00;;;;;;5014377;28;19945;-96
2022/07/01 08:22:07;;;;;;;;;;;28.50;67.40;;;;;;5016016;28;19955;-96
2022/07/01 08:24:43;;;;;;;;;;;28.50;66.00;;;;;;5016783;28;19980;-96
2022/07/01 08:27:12;;;;;;;;;;;28.40;64.40;;;;;;5035010;28;20037;-96
2022/07/01 08:29:40;;;;;;;;;;;28.50;65.00;;;;;;5036275;28;19953;-96
2022/07/01 08:32:08;;;;;;;;;;;28.50;65.40;;;;;;5036538;28;19957;-96
2022/07/01 08:34:40;;;;;;;;;;;28.60;65.10;;;;;;5018926;28;20385;-96
2022/07/01 08:37:16;;;;;;;;;;;28.70;64.40;;;;;;5039395;28;19975;-96
2022/07/01 08:39:50;;;;;;;;;;;28.70;63.90;;;;;;5040237;28;19959;-96
2022/07/01 08:42:20;;;;;;;;;;;28.70;63.60;;;;;;5039969;28;19935;-96
2022/07/01 08:44:51;;;;;;;;;;;28.80;62.80;;;;;;5022666;28;19935;-96
2022/07/01 08:47:26;;;;;;;;;;;28.80;62.00;;;;;;5041086;28;19943;-96
2022/07/01 08:49:55;;;;;;;;;;;28.90;61.70;;;;;;5041439;28;19997;-96
2022/07/01 08:52:23;;;;;;;;;;;29.00;61.60;;;;;;5036373;28;19955;-96
2022/07/01 08:54:59;;;;;;;;;;;29.10;62.20;;;;;;5040343;28;19933;-96
2022/07/01 08:57:46;;;;;;;;;;;29.20;62.50;;;;;;5023428;28;19973;-96
2022/07/01 09:00:14;;;;;;;;;;;29.40;62.50;;;;;;5037139;28;19935;-96
2022/07/01 09:02:55;;;;;;;;;;;29.50;58.20;;;;;;5035144;28;19949;-96
2022/07/01 09:05:22;;;;;;;;;;;29.50;58.60;;;;;;5036040;28;20006;-96
2022/07/01 09:07:49;;;;;;;;;;;29.60;59.50;;;;;;5036205;28;19938;-96
2022/07/01 09:10:20;;;;;;;;;;;29.70;58.60;;;;;;5036440;28;19949;-96
2022/07/01 09:12:46;;;;;;;;;;;29.60;57.80;;;;;;5027945;28;19964;-96
2022/07/01 09:15:42;;;;;;;;;;;29.60;58.10;;;;;;5026324;28;20007;-96
2022/07/01 09:18:15;;;;;;;;;;;29.60;58.70;;;;;;5017576;28;19998;-96
2022/07/01 09:20:47;;;;;;;;;;;29.70;58.80;;;;;;5036014;28;19979;-96
2022/07/01 09:23:19;;;;;;;;;;;29.70;58.30;;;;;;5035687;28;19942;-96
2022/07/01 09:25:50;;;;;;;;;;;29.80;58.00;;;;;;5027892;28;20388;-95
2022/07/01 09:28:16;;;;;;;;;;;29.80;59.20;;;;;;5016284;28;19941;-94
2022/07/01 09:30:42;;;;;;;;;;;29.90;58.50;;;;;;5016300;28;20042;-95
2022/07/01 09:33:11;;;;;;;;;;;29.90;59.00;;;;;;5015725;28;20392;-94
2022/07/01 09:35:37;;;;;;;;;;;30.00;56.90;;;;;;5016067;28;19941;-95
2022/07/01 09:38:03;;;;;;;;;;;30.20;58.40;;;;;;5014982;28;20095;-95
2022/07/01 09:40:48;;;;;;;;;;;30.20;59.10;;;;;;5016642;28;19942;-95
2022/07/01 09:43:15;;;;;;;;;;;30.40;57.30;;;;;;5016408;28;20412;-95
2022/07/01 09:45:48;;;;;;;;;;;30.60;58.60;;;;;;5016102;28;19945;-95
2022/07/01 09:48:13;;;;;;;;;;;30.80;58.80;;;;;;5014981;28;19934;-95
2022/07/01 09:50:39;;;;;;;;;;;31.10;55.00;;;;;;5015960;28;19938;-95
2022/07/01 09:53:05;;;;;;;;;;;31.20;56.30;;;;;;5016112;28;19941;-95
2022/07/01 09:55:31;;;;;;;;;;;31.40;56.20;;;;;;5015867;28;19939;-95
2022/07/01 09:57:57;;;;;;;;;;;31.50;56.40;;;;;;5016126;28;20125;-94
2022/07/01 10:00:22;;;;;;;;;;;31.70;54.10;;;;;;5035677;28;20442;-95
2022/07/01 10:02:48;;;;;;;;;;;31.90;56.50;;;;;;5035330;28;20422;-95
2022/07/01 10:05:17;;;;;;;;;;;32.00;50.40;;;;;;5035533;28;20299;-95
2022/07/01 10:07:52;;;;;;;;;;;32.00;52.30;;;;;;5016990;28;19939;-94
2022/07/01 10:10:21;;;;;;;;;;;32.20;54.60;;;;;;5035267;28;19995;-94
2022/07/01 10:12:50;;;;;;;;;;;32.30;55.00;;;;;;5035402;28;19943;-94
2022/07/01 10:15:18;;;;;;;;;;;32.40;51.60;;;;;;5035541;28;20072;-95
2022/07/01 10:17:45;;;;;;;;;;;32.50;51.80;;;;;;5035514;28;19970;-94
2022/07/01 10:20:12;;;;;;;;;;;32.60;52.00;;;;;;5035784;28;19944;-93
2022/07/01 10:22:39;;;;;;;;;;;32.60;50.10;;;;;;5035431;28;19950;-94
2022/07/01 10:25:23;;;;;;;;;;;32.70;49.90;;;;;;5035391;28;19944;-94
2022/07/01 10:28:08;;;;;;;;;;;32.70;50.20;;;;;;5035086;28;20374;-94
2022/07/01 10:30:33;;;;;;;;;;;32.70;49.10;;;;;;5035470;28;19945;-94
2022/07/01 10:32:59;;;;;;;;;;;32.70;48.90;;;;;;5035324;28;19936;-94
2022/07/01 10:35:25;;;;;;;;;;;32.60;51.00;;;;;;5035269;28;19990;-94
2022/07/01 10:37:57;;;;;;;;;;;32.70;52.10;;;;;;5035166;28;20013;-95
2022/07/01 10:40:44;;;;;;;;;;;32.70;51.30;;;;;;5035144;28;20026;-94
2022/07/01 10:43:10;;;;;;;;;;;32.80;51.70;;;;;;5017060;28;19946;-94
2022/07/01 10:45:45;;;;;;;;;;;32.90;51.30;;;;;;5017124;28;20292;-94
2022/07/01 10:48:18;;;;;;;;;;;32.90;51.20;;;;;;5035011;28;19936;-94
2022/07/01 10:50:45;;;;;;;;;;;33.20;50.30;;;;;;5034716;28;19939;-94
2022/07/01 10:53:10;;;;;;;;;;;32.90;51.20;;;;;;5035144;28;19951;-94
2022/07/01 10:55:37;;;;;;;;;;;32.60;51.20;;;;;;5034683;28;20028;-94
2022/07/01 10:58:03;;;;;;;;;;;32.70;51.80;;;;;;5034583;28;20394;-94
2022/07/01 11:00:31;;;;;;;;;;;32.90;50.60;;;;;;5034588;28;19955;-93
2022/07/01 11:03:14;;;;;;;;;;;33.00;50.10;;;;;;5034630;28;20023;-94
2022/07/01 11:05:40;;;;;;;;;;;32.90;50.20;;;;;;5034505;28;20282;-94
2022/07/01 11:08:06;;;;;;;;;;;32.80;51.20;;;;;;5034413;28;19947;-95
2022/07/01 11:10:32;;;;;;;;;;;33.00;51.00;;;;;;5016624;28;19947;-94
2022/07/01 11:12:58;;;;;;;;;;;33.20;49.80;;;;;;5034599;28;19939;-95
2022/07/01 11:15:24;;;;;;;;;;;33.20;49.70;;;;;;5034300;28;19965;-95
2022/07/01 11:17:50;;;;;;;;;;;33.20;49.90;;;;;;5034290;28;20424;-94
2022/07/01 11:20:15;;;;;;;;;;;33.40;50.30;;;;;;5034443;28;19940;-94
2022/07/01 11:22:41;;;;;;;;;;;33.60;48.80;;;;;;5034125;28;19949;-95
2022/07/01 11:25:08;;;;;;;;;;;33.70;47.70;;;;;;5033925;28;19951;-94
2022/07/01 11:27:34;;;;;;;;;;;33.80;46.80;;;;;;5033971;28;19977;-95
2022/07/01 11:30:04;;;;;;;;;;;33.80;48.30;;;;;;5034380;28;20407;-95
2022/07/01 11:32:31;;;;;;;;;;;34.00;49.30;;;;;;5033996;28;19945;-94
2022/07/01 11:34:59;;;;;;;;;;;34.20;47.80;;;;;;5034093;28;19975;-94
2022/07/01 11:40:12;;;;;;;;;;;34.20;47.00;;;;;;5034145;28;19949;-93
2022/07/01 11:42:38;;;;;;;;;;;33.90;47.70;;;;;;5016542;28;19943;-94
2022/07/01 11:45:03;;;;;;;;;;;33.70;47.70;;;;;;5033889;28;20030;-94
2022/07/01 11:47:29;;;;;;;;;;;33.70;48.20;;;;;;5033570;28;20305;-94
2022/07/01 11:49:55;;;;;;;;;;;33.80;49.90;;;;;;5033780;28;20482;-94
2022/07/01 11:52:22;;;;;;;;;;;34.00;47.40;;;;;;5033773;28;19950;-94
2022/07/01 11:54:48;;;;;;;;;;;33.80;47.30;;;;;;5033516;28;19995;-93
2022/07/01 11:57:16;;;;;;;;;;;33.70;47.10;;;;;;5033613;28;20325;-94
2022/07/01 11:59:44;;;;;;;;;;;33.80;48.00;;;;;;5032604;28;20373;-95
2022/07/01 12:02:11;;;;;;;;;;;33.70;48.80;;;;;;5033522;28;19941;-95
2022/07/01 12:04:38;;;;;;;;;;;34.00;50.10;;;;;;5033631;28;19992;-94
2022/07/01 12:07:03;;;;;;;;;;;34.40;47.00;;;;;;5033591;28;20060;-93
2022/07/01 12:09:29;;;;;;;;;;;34.60;46.80;;;;;;5033526;28;20433;-94
2022/07/01 12:11:55;;;;;;;;;;;34.80;45.70;;;;;;5037013;28;19972;-94
2022/07/01 12:14:25;;;;;;;;;;;35.30;43.40;;;;;;5037304;28;19967;-94
2022/07/01 12:16:55;;;;;;;;;;;35.70;42.50;;;;;;5037805;28;19972;-94
2022/07/01 12:19:28;;;;;;;;;;;35.70;42.30;;;;;;5037304;28;19973;-94
2022/07/01 12:22:00;;;;;;;;;;;35.80;44.70;;;;;;5037552;28;19942;-95
2022/07/01 12:24:26;;;;;;;;;;;36.10;41.90;;;;;;5037817;28;19944;-95
2022/07/01 12:26:58;;;;;;;;;;;36.20;41.90;;;;;;5037059;28;20427;-94
2022/07/01 12:29:24;;;;;;;;;;;36.50;40.70;;;;;;5036833;28;19942;-93
2022/07/01 12:31:59;;;;;;;;;;;36.60;41.30;;;;;;5027822;28;20061;-93
2022/07/01 12:34:44;;;;;;;;;;;36.40;41.90;;;;;;5017190;28;19950;-94
2022/07/01 12:37:10;;;;;;;;;;;36.30;40.10;;;;;;5017023;28;20477;-95
2022/07/01 12:39:47;;;;;;;;;;;36.10;39.10;;;;;;5036357;28;19982;-94
2022/07/01 12:42:26;;;;;;;;;;;35.60;39.30;;;;;;5036799;28;20417;-94
2022/07/01 12:44:53;;;;;;;;;;;35.50;42.20;;;;;;5036936;28;19986;-94
2022/07/01 12:47:19;;;;;;;;;;;35.80;41.90;;;;;;5036312;28;19936;-94
2022/07/01 12:49:45;;;;;;;;;;;36.30;40.50;;;;;;5036726;28;19939;-95
2022/07/01 12:52:26;;;;;;;;;;;36.80;39.90;;;;;;5036794;28;19941;-95
2022/07/01 12:54:52;;;;;;;;;;;36.80;40.10;;;;;;5036718;28;19944;-94
2022/07/01 12:57:27;;;;;;;;;;;37.10;40.70;;;;;;5018851;28;19966;-94
2022/07/01 12:59:53;;;;;;;;;;;37.60;39.20;;;;;;5035889;28;20431;-95
2022/07/01 13:02:18;;;;;;;;;;;38.10;38.50;;;;;;5036546;28;19946;-94
2022/07/01 13:04:44;;;;;;;;;;;38.20;39.60;;;;;;5036053;28;19944;-94
2022/07/01 13:07:10;;;;;;;;;;;38.00;38.60;;;;;;5036234;28;19943;-95
2022/07/01 13:09:35;;;;;;;;;;;37.40;38.90;;;;;;5018622;28;19949;-94
2022/07/01 13:12:01;;;;;;;;;;;37.90;40.10;;;;;;5036000;28;19946;-94
2022/07/01 13:14:26;;;;;;;;;;;38.60;39.00;;;;;;5036197;28;20034;-94
2022/07/01 13:16:52;;;;;;;;;;;39.70;35.90;;;;;;5036131;28;20438;-95
2022/07/01 13:19:17;;;;;;;;;;;41.30;33.80;;;;;;5036258;28;20031;-94
2022/07/01 13:21:43;;;;;;;;;;;41.70;32.80;;;;;;5035829;28;19995;-94
2022/07/01 13:24:08;;;;;;;;;;;41.10;31.40;;;;;;5035278;28;19940;-94
2022/07/01 13:26:34;;;;;;;;;;;41.00;34.40;;;;;;5035846;28;19957;-93
2022/07/01 13:28:59;;;;;;;;;;;40.70;35.40;;;;;;5028034;28;20061;-93
2022/07/01 13:31:25;;;;;;;;;;;41.10;33.70;;;;;;5024534;28;19941;-94
2022/07/01 13:33:50;;;;;;;;;;;41.60;33.70;;;;;;5023552;28;19975;-94
2022/07/01 13:36:16;;;;;;;;;;;40.90;33.90;;;;;;5014558;28;19995;-94
2022/07/01 13:38:43;;;;;;;;;;;39.70;34.70;;;;;;5017016;28;20387;-94
2022/07/01 13:41:09;;;;;;;;;;;38.20;37.40;;;;;;5035828;28;20031;-94
2022/07/01 13:43:34;;;;;;;;;;;37.20;39.70;;;;;;5035711;28;19940;-94
2022/07/01 13:46:00;;;;;;;;;;;36.50;41.10;;;;;;5035742;28;20298;-93
2022/07/01 13:48:25;;;;;;;;;;;35.70;42.50;;;;;;5035759;28;20356;-94
2022/07/01 13:50:51;;;;;;;;;;;35.20;44.60;;;;;;5035781;28;19938;-94
2022/07/01 13:53:16;;;;;;;;;;;34.60;45.30;;;;;;5035729;28;19941;-94
2022/07/01 13:55:44;;;;;;;;;;;34.20;45.40;;;;;;5035473;28;20450;-94
2022/07/01 13:58:09;;;;;;;;;;;33.70;46.80;;;;;;5035398;28;20002;-94
2022/07/01 14:00:35;;;;;;;;;;;33.10;48.30;;;;;;5016529;28;20401;-94
2022/07/01 14:03:00;;;;;;;;;;;32.80;48.70;;;;;;5015506;28;19990;-95
2022/07/01 14:05:26;;;;;;;;;;;32.60;49.80;;;;;;5015350;28;20313;-94
2022/07/01 14:07:51;;;;;;;;;;;32.30;51.40;;;;;;5015521;28;20316;-94
2022/07/01 14:10:17;;;;;;;;;;;32.20;52.70;;;;;;5015185;28;20006;-95
2022/07/01 14:12:42;;;;;;;;;;;31.80;56.10;;;;;;5015511;28;19957;-94
2022/07/01 14:15:09;;;;;;;;;;;31.20;58.10;;;;;;5015705;28;19991;-94
2022/07/01 14:17:34;;;;;;;;;;;30.80;60.50;;;;;;4997704;28;20040;-94
2022/07/01 14:20:00;;;;;;;;;;;30.60;64.60;;;;;;5015372;28;19963;-94
2022/07/01 14:22:25;;;;;;;;;;;30.30;66.20;;;;;;5015315;28;20236;-94
2022/07/01 14:24:51;;;;;;;;;;;30.00;67.50;;;;;;5015645;28;19993;-94
2022/07/01 14:27:17;;;;;;;;;;;29.70;69.90;;;;;;5015156;28;20037;-94
2022/07/01 14:29:43;;;;;;;;;;;29.20;73.00;;;;;;5015568;28;20022;-94
2022/07/01 14:32:08;;;;;;;;;;;29.00;71.90;;;;;;5034708;28;20041;-93
2022/07/01 14:34:34;;;;;;;;;;;28.40;75.20;;;;;;5034521;28;20052;-93
2022/07/01 14:36:59;;;;;;;;;;;27.80;76.90;;;;;;5035131;28;20015;-94
2022/07/01 14:39:25;;;;;;;;;;;26.90;77.70;;;;;;5035601;28;19943;-94
2022/07/01 14:41:50;;;;;;;;;;;25.20;80.60;;;;;;5017520;28;19959;-94
2022/07/01 14:44:17;;;;;;;;;;;24.20;82.40;;;;;;5019444;28;19961;-94
2022/07/01 14:46:42;;;;;;;;;;;24.00;85.80;;;;;;4995699;28;20450;-95
2022/07/01 14:49:08;;;;;;;;;;;23.80;85.20;;;;;;4995177;28;19940;-96
2022/07/01 14:51:34;;;;;;;;;;;23.70;85.90;;;;;;4995274;28;19939;-96
2022/07/01 14:53:59;;;;;;;;;;;23.80;86.50;;;;;;4996655;28;19944;-96
2022/07/01 14:56:25;;;;;;;;;;;24.10;89.50;;;;;;4979285;28;19945;-96
2022/07/01 14:58:51;;;;;;;;;;;24.30;89.20;;;;;;5004612;28;19978;-96
2022/07/01 15:01:17;;;;;;;;;;;24.60;90.10;;;;;;5019269;28;19996;-96
2022/07/01 15:03:42;;;;;;;;;;;24.90;89.70;;;;;;5028084;28;19991;-96
2022/07/01 15:06:08;;;;;;;;;;;25.70;90.70;;;;;;5010904;28;19943;-96
2022/07/01 15:08:34;;;;;;;;;;;26.20;85.60;;;;;;5012753;28;19941;-96
2022/07/01 15:11:02;;;;;;;;;;;26.40;84.70;;;;;;5023593;28;20051;-96
2022/07/01 15:13:30;;;;;;;;;;;26.70;85.00;;;;;;5014031;28;19957;-96
2022/07/01 15:15:56;;;;;;;;;;;26.70;84.20;;;;;;5017415;28;19945;-96
2022/07/01 15:18:22;;;;;;;;;;;26.70;84.40;;;;;;4997759;28;19960;-96
2022/07/01 15:20:48;;;;;;;;;;;26.70;84.20;;;;;;5014283;28;20528;-95
2022/07/01 15:23:13;;;;;;;;;;;26.70;82.40;;;;;;5014688;28;19938;-96
2022/07/01 15:25:39;;;;;;;;;;;26.70;81.70;;;;;;5014342;28;19953;-96
2022/07/01 15:28:04;;;;;;;;;;;26.50;79.60;;;;;;5014200;28;20321;-96
2022/07/01 15:30:30;;;;;;;;;;;26.50;80.40;;;;;;5014324;28;19982;-95
2022/07/01 15:32:57;;;;;;;;;;;26.40;79.70;;;;;;5014333;28;20105;-96
2022/07/01 15:35:22;;;;;;;;;;;26.30;78.70;;;;;;5014553;28;19952;-95
2022/07/01 15:37:48;;;;;;;;;;;26.20;79.00;;;;;;5014448;28;19961;-96
2022/07/01 15:40:13;;;;;;;;;;;26.10;78.30;;;;;;5014373;28;19945;-95
2022/07/01 15:42:39;;;;;;;;;;;25.90;78.80;;;;;;5014033;28;19944;-95
2022/07/01 15:45:05;;;;;;;;;;;25.70;80.40;;;;;;4995616;28;20038;-95
2022/07/01 15:50:18;;;;;;;;;;;25.60;79.50;;;;;;5013918;28;20310;-96
2022/07/01 15:52:45;;;;;;;;;;;25.70;79.80;;;;;;5014026;28;20411;-95
2022/07/01 15:55:12;;;;;;;;;;;25.80;79.70;;;;;;5013559;28;19947;-96
2022/07/01 15:57:37;;;;;;;;;;;26.00;78.50;;;;;;5020188;23;20012;-96
2022/07/01 16:00:03;;;;;;;;;;;26.30;79.40;;;;;;5014019;28;19945;-96
2022/07/01 16:02:30;;;;;;;;;;;26.90;78.40;;;;;;5013865;28;20400;-96
2022/07/01 16:04:55;;;;;;;;;;;27.50;75.60;;;;;;5014076;28;19944;-96